Latest Coastal Weather Observations for Rhyll

IDV60701

Issued at 12:15 am EST Tuesday 2 September 2014 (issued every 10 minutes, with the page automatically refreshed every 10 minutes)

About coastal observations | Map of coastal stations | Coastal observations for VIC | Marine services | Other Formats
Station Details ID: 086373 Name: RHYLL Lat: -38.46 Lon: 145.31 Height: 13.4 m
Data from the previous 72 hours. | See also: Recent months at Rhyll
Date/Time
EST
Temp

°C
Wind Pressure Rain
since 9am
mm
Weather Cloud Vis
km
Sea
Height
m
Swell
Dir
 
Speed
knots
Gust
knots
hPa Trend Height
m
Period
s
Dir
02/12:00am 11.5 SW 5 8 1012.4 - 6.8 - - - - - - -
 
Date/Time
EST
Temp

°C
Wind Pressure Rain
since 9am
mm
Weather Cloud Vis
km
Sea
Height
m
Swell
Dir
 
Speed
knots
Gust
knots
hPa Trend Height
m
Period
s
Dir
01/11:30pm 11.3 SW 4 6 1012.2 - 6.8 - - - - - - -
01/11:00pm 11.3 WSW 4 7 1012.2 - 6.8 - - - - - - -
01/10:30pm 10.8 WSW 3 5 1012.2 - 6.8 - - - - - - -
01/10:00pm 11.1 WSW 4 6 1012.0 - 6.8 - - - - - - -
01/09:30pm 10.9 WSW 3 5 1011.6 - 6.8 - - - - - - -
01/09:00pm 10.9 SW 4 7 1011.3 - 6.8 - - - - - - -
01/08:30pm 11.1 SW 6 8 1011.2 - 6.8 - - - - - - -
01/08:00pm 11.2 SW 6 10 1010.9 - 6.8 - - - - - - -
01/07:30pm 11.2 SW 5 8 1010.7 - 6.8 - - - - - - -
01/07:00pm 10.9 SW 5 9 1010.5 - 6.8 - - - - - - -
01/06:30pm 11.3 SW 5 8 1010.0 - 5.8 - - - - - - -
01/06:00pm 11.3 SW 8 13 1009.6 - 5.8 - - - - - - -
01/05:30pm 11.5 WSW 5 9 1009.2 - 5.8 - - - - - - -
01/05:00pm 11.3 WSW 3 5 1008.9 - 5.8 - - - - - - -
01/04:30pm 11.4 WSW 2 4 1008.5 - 5.4 - - - - - - -
01/04:00pm 11.3 W 4 6 1008.4 - 5.4 - - - - - - -
01/03:30pm 11.4 WNW 3 6 1008.4 - 4.8 - - - - - - -
01/03:00pm 11.4 WNW 5 9 1008.4 - 3.4 Rain - - - - - -
01/02:30pm 12.1 WNW 3 10 1008.0 - 1.8 - - - - - - -
01/02:00pm 12.1 NW 4 8 1008.0 - 1.8 - - - - - - -
01/01:30pm 12.2 NW 7 13 1008.1 - 1.2 - - - - - - -
01/01:00pm 11.8 NW 6 12 1008.2 - 1.2 - - - - - - -
01/12:30pm 11.8 NW 6 11 1008.3 - 0.8 - - - - - - -
01/12:00pm 11.8 NW 5 10 1008.2 - 0.4 Recent precip. - - - - - -
01/11:30am 11.6 NNW 9 17 1008.3 - 0.4 - - - - - - -
01/11:00am 13.1 NW 5 9 1008.4 - 0.0 - - - - - - -
01/10:30am 13.9 NNW 8 16 1008.5 - 0.0 - - - - - - -
01/10:00am 13.9 NW 7 13 1008.9 - 0.0 - - - - - - -
01/09:30am 13.9 NW 5 9 1008.2 - 0.0 - - - - - - -
01/09:00am 14.2 NNW 10 16 1008.5 - 0.0 - - - - - - -
01/08:30am 14.6 WNW 6 14 1008.4 - 0.0 - - - - - - -
01/08:00am 14.9 W 9 13 1008.1 - 0.0 - - - - - - -
01/07:30am 14.8 WNW 4 9 1007.8 - 0.0 - - - - - - -
01/07:00am 14.7 WNW 5 9 1007.7 - 0.0 - - - - - - -
01/06:30am 15.4 NW 4 9 1007.8 - 0.0 - - - - - - -
01/06:00am 15.9 WNW 6 12 1008.2 - 0.0 - - - - - - -
01/05:30am 15.8 NNW 14 19 1007.1 - 0.0 - - - - - - -
01/05:00am 16.3 N 14 19 1006.9 - 0.0 - - - - - - -
01/04:30am 16.7 N 17 26 1006.6 - 0.0 - - - - - - -
01/04:12am 16.6 N 17 30 1007.5 - 0.0 - - - - - - -
01/04:00am 16.2 NNW 13 20 1008.0 - 0.0 - - - - - - -
01/03:30am 16.9 N 19 23 1007.9 - 0.0 - - - - - - -
01/03:00am 16.8 N 22 27 1008.2 - 0.0 - - - - - - -
01/02:49am 17.1 N 21 30 1008.1 - 0.0 - - - - - - -
01/02:30am 16.5 N 17 20 1008.5 - 0.0 - - - - - - -
01/02:00am 16.1 N 17 20 1008.7 - 0.0 - - - - - - -
01/01:30am 15.4 N 15 18 1009.2 - 0.0 - - - - - - -
01/01:00am 14.4 N 9 11 1009.7 - 0.0 - - - - - - -
01/12:30am 14.5 NNE 4 6 1009.7 - 0.0 - - - - - - -
01/12:00am 14.4 NE 4 4 1010.0 - 0.0 - - - - - - -
 
Date/Time
EST
Temp

°C
Wind Pressure Rain
since 9am
mm
Weather Cloud Vis
km
Sea
Height
m
Swell
Dir
 
Speed
knots
Gust
knots
hPa Trend Height
m
Period
s
Dir
31/11:30pm 14.7 NE 2 4 1010.2 - 0.0 - - - - - - -
31/11:00pm 14.1 ENE 5 6 1010.4 - 0.0 - - - - - - -
31/10:30pm 14.8 NE 16 18 1010.4 - 0.0 - - - - - - -
31/10:00pm 15.4 NNE 14 17 1011.2 - 0.0 - - - - - - -
31/09:30pm 15.4 NNE 10 14 1011.8 - 0.0 - - - - - - -
31/09:00pm 15.6 N 10 14 1012.1 - 0.0 - - - - - - -
31/08:30pm 15.6 N 9 14 1012.5 - 0.0 - - - - - - -
31/08:00pm 15.4 N 9 11 1012.9 - 0.0 - - - - - - -
31/07:30pm 15.3 N 9 10 1013.0 - 0.0 - - - - - - -
31/07:00pm 16.1 N 12 15 1013.1 - 0.0 - - - - - - -
31/06:30pm 16.1 N 9 13 1013.1 - 0.0 - - - - - - -
31/06:00pm 16.0 N 8 11 1013.3 - 0.0 - - - - - - -
31/05:30pm 16.5 N 7 11 1013.2 - 0.0 - - - - - - -
31/05:00pm 16.3 N 7 9 1013.1 - 0.0 - - - - - - -
31/04:30pm 17.0 N 9 12 1013.1 - 0.0 - - - - - - -
31/04:00pm 17.1 N 13 15 1013.3 - 0.0 - - - - - - -
31/03:30pm 18.0 N 12 15 1013.6 - 0.0 - - - - - - -
31/03:00pm 17.9 N 13 15 1014.0 - 0.0 - - - - - - -
31/02:30pm 17.7 NNW 14 17 1014.3 - 0.0 - - - - - - -
31/02:00pm 17.7 N 14 18 1014.5 - 0.0 - - - - - - -
31/01:30pm 19.2 N 17 21 1014.8 - 0.0 - - - - - - -
31/01:00pm 18.9 N 17 21 1015.2 - 0.0 - - - - - - -
31/12:30pm 18.8 N 20 26 1015.4 - 0.0 - - - - - - -
31/12:00pm 18.7 N 17 21 1016.0 - 0.0 - - - - - - -
31/11:30am 18.2 N 15 19 1016.7 - 0.0 - - - - - - -
31/11:00am 17.7 N 10 14 1017.1 - 0.0 - - - - - - -
31/10:30am 17.2 N 10 14 1017.5 - 0.0 - - - - - - -
31/10:00am 16.1 N 5 9 1018.1 - 0.0 - - - - - - -
31/09:30am 15.4 NNE 5 7 1018.4 - 0.0 - - - - - - -
31/09:00am 13.5 NNE 3 6 1018.8 - 0.0 - - - - - - -
31/08:30am 13.1 NE 7 8 1018.8 - 0.0 - - - - - - -
31/08:00am 11.7 NNE 8 9 1018.8 - 0.0 - - - - - - -
31/07:30am 11.4 NNE 5 6 1019.0 - 0.0 - - - - - - -
31/07:00am 10.3 N 3 5 1018.9 - 0.0 - - - - - - -
31/06:30am 10.3 N 3 4 1018.8 - 0.0 - - - - - - -
31/06:00am 10.2 NNE 4 6 1018.7 - 0.0 - - - - - - -
31/05:30am 10.7 NNE 7 9 1018.5 - 0.0 - - - - - - -
31/05:00am 10.3 NE 6 7 1018.4 - 0.0 - - - - - - -
31/04:30am 10.2 NE 5 6 1018.5 - 0.0 - - - - - - -
31/04:00am 10.5 NE 4 5 1018.6 - 0.0 - - - - - - -
31/03:30am 10.6 NE 5 8 1018.8 - 0.0 - - - - - - -
31/03:00am 11.3 NNE 8 9 1018.9 - 0.0 - - - - - - -
31/02:30am 11.3 NE 10 12 1019.0 - 0.0 - - - - - - -
31/02:00am 11.2 NE 11 12 1019.4 - 0.0 - - - - - - -
31/01:30am 11.3 NNE 6 9 1019.8 - 0.0 - - - - - - -
31/01:00am 11.3 NNE 5 7 1020.1 - 0.0 - - - - - - -
31/12:30am 11.3 NE 12 15 1020.1 - 0.0 - - - - - - -
31/12:00am 11.6 NE 15 17 1020.2 - 0.0 - - - - - - -
 
Date/Time
EST
Temp

°C
Wind Pressure Rain
since 9am
mm
Weather Cloud Vis
km
Sea
Height
m
Swell
Dir
 
Speed
knots
Gust
knots
hPa Trend Height
m
Period
s
Dir
30/11:30pm 11.7 NE 15 17 1020.3 - 0.0 - - - - - - -
30/11:00pm 12.0 NE 15 17 1020.7 - 0.0 - - - - - - -
30/10:30pm 12.1 NE 14 16 1021.2 - 0.0 - - - - - - -
30/10:00pm 12.3 NE 14 17 1021.6 - 0.0 - - - - - - -
30/09:30pm 12.4 NE 14 17 1021.7 - 0.0 - - - - - - -
30/09:00pm 12.7 NE 12 15 1021.8 - 0.0 - - - - - - -
30/08:30pm 12.9 NE 13 16 1021.7 - 0.0 - - - - - - -
30/08:00pm 12.9 NE 12 14 1021.5 - 0.0 - - - - - - -
30/07:30pm 13.3 NE 12 14 1021.4 - 0.0 - - - - - - -
30/07:00pm 13.4 NE 9 11 1021.5 - 0.0 - - - - - - -
30/06:30pm 13.3 ENE 4 5 1021.7 - 0.0 - - - - - - -
30/06:00pm 14.3 ESE 2 4 1021.7 - 0.0 - - - - - - -
30/05:30pm 14.7 ENE 7 7 1021.6 - 0.0 - - - - - - -
30/05:00pm 15.6 ENE 5 6 1021.6 - 0.0 - - - - - - -
30/04:30pm 15.8 ESE 5 6 1021.7 - 0.0 - - - - - - -
30/04:00pm 16.2 ESE 5 5 1021.7 - 0.0 - - - - - - -
30/03:30pm 16.5 ESE 4 4 1021.9 - 0.0 - - - - - - -
30/03:00pm 16.8 ESE 5 6 1022.1 - 0.0 - - - - - - -
30/02:30pm 17.7 E 4 4 1022.4 - 0.0 - - - - - - -
30/02:00pm 18.0 E 2 3 1022.7 - 0.0 - - - - - - -
30/01:30pm 18.0 NE 2 2 1023.1 - 0.0 - - - - - - -
30/01:00pm 16.5 E 1 2 1023.4 - 0.0 - - - - - - -
30/12:30pm 16.3 E 1 2 1024.0 - 0.0 - - - - - - -
30/12:00pm 15.2 ESE 2 3 1024.5 - 0.0 - - - - - - -
30/11:30am 15.8 E 4 5 1024.9 - 0.0 - - - - - - -
30/11:00am 14.8 E 3 4 1025.5 - 0.0 - - - - - - -
30/10:30am 14.2 E 3 4 1025.8 - 0.0 - - - - - - -
30/10:00am 13.7 ENE 2 3 1026.2 - 0.0 - - - - - - -
30/09:30am 12.4 NE 2 3 1026.4 - 0.0 - - - - - - -
30/09:00am 12.7 NE 1 2 1026.5 - 0.4 - - - - - - -
30/08:30am 11.2 NNE 2 3 1026.5 - 0.4 - - - - - - -
30/08:00am 11.0 NE 3 5 1026.5 - 0.4 - - - - - - -
30/07:30am 10.1 NNE 5 6 1026.5 - 0.4 - - - - - - -
30/07:00am 9.4 NNE 6 7 1026.2 - 0.2 - - - - - - -
30/06:30am 9.4 NNE 5 7 1026.0 - 0.2 - - - - - - -
30/06:00am 9.3 NNE 4 6 1025.8 - 0.2 - - - - - - -
30/05:30am 9.4 NNE 5 6 1025.9 - 0.2 - - - - - - -
30/05:00am 9.7 NNE 4 7 1025.8 - 0.2 - - - - - - -
30/04:30am 10.0 NNE 4 7 1026.0 - 0.2 - - - - - - -
30/04:00am 9.5 E 4 5 1026.1 - 0.2 - - - - - - -
30/03:30am 10.0 E 6 7 1026.2 - 0.2 - - - - - - -
30/03:00am 10.7 ESE 8 10 1026.3 - 0.2 - - - - - - -
30/02:30am 10.9 ESE 10 11 1026.5 - 0.2 - - - - - - -
30/02:00am 11.0 ESE 11 12 1026.7 - 0.2 - - - - - - -
30/01:30am 10.9 E 9 11 1027.0 - 0.2 - - - - - - -
30/01:00am 10.7 E 10 12 1027.3 - 0.2 - - - - - - -
30/12:30am 10.6 E 7 11 1027.4 - 0.2 - - - - - - -

Other Formats:

Comma delimited format used in spreadsheet applications
http://www.bom.gov.au/fwo/IDV60701/IDV60701.94892.axf

JavaScript Object Notation format (JSON) in row-major order
http://www.bom.gov.au/fwo/IDV60701/IDV60701.94892.json